sensor_id;sensor_type;location;lat;lon;timestamp;P1;durP1;ratioP1;P2;durP2;ratioP2
19507;SDS011;40157;42.566;27.526;2022-12-29T12:57:32;11.30;;;5.73;;
19507;SDS011;40157;42.566;27.526;2022-12-29T13:00:02;16.37;;;7.67;;
19507;SDS011;40157;42.566;27.526;2022-12-29T13:21:00;11.60;;;6.67;;
19507;SDS011;40157;42.566;27.526;2022-12-29T13:27:55;10.67;;;6.03;;
19507;SDS011;40157;42.566;27.526;2022-12-29T13:37:46;12.23;;;6.40;;
19507;SDS011;40157;42.566;27.526;2022-12-29T13:39:56;10.97;;;6.63;;
19507;SDS011;40157;42.566;27.526;2022-12-29T13:42:01;12.80;;;7.90;;
19507;SDS011;40157;42.566;27.526;2022-12-29T13:44:04;11.17;;;7.50;;
19507;SDS011;40157;42.566;27.526;2022-12-29T13:46:16;10.93;;;7.03;;
19507;SDS011;40157;42.566;27.526;2022-12-29T13:48:22;10.70;;;6.53;;
19507;SDS011;40157;42.566;27.526;2022-12-29T13:50:26;15.83;;;7.57;;
19507;SDS011;40157;42.566;27.526;2022-12-29T13:54:43;12.27;;;7.73;;
19507;SDS011;40157;42.566;27.526;2022-12-29T13:56:55;14.97;;;9.00;;
19507;SDS011;40157;42.566;27.526;2022-12-29T13:59:19;21.80;;;10.73;;
19507;SDS011;40157;42.566;27.526;2022-12-29T14:01:30;14.67;;;8.70;;
19507;SDS011;40157;42.566;27.526;2022-12-29T14:05:39;40.47;;;17.67;;
19507;SDS011;40157;42.566;27.526;2022-12-29T14:07:39;47.97;;;21.77;;
19507;SDS011;40157;42.566;27.526;2022-12-29T14:11:50;20.30;;;9.97;;
19507;SDS011;40157;42.566;27.526;2022-12-29T14:13:50;17.60;;;9.83;;
19507;SDS011;40157;42.566;27.526;2022-12-29T14:15:52;20.23;;;10.43;;
19507;SDS011;40157;42.566;27.526;2022-12-29T14:18:04;16.13;;;9.00;;
19507;SDS011;40157;42.566;27.526;2022-12-29T14:20:20;19.17;;;9.90;;
19507;SDS011;40157;42.566;27.526;2022-12-29T14:22:23;20.33;;;9.93;;
19507;SDS011;40157;42.566;27.526;2022-12-29T14:24:26;32.73;;;14.87;;
19507;SDS011;40157;42.566;27.526;2022-12-29T14:26:36;24.27;;;11.63;;
19507;SDS011;40157;42.566;27.526;2022-12-29T14:31:02;24.63;;;9.27;;
19507;SDS011;40157;42.566;27.526;2022-12-29T14:33:15;19.60;;;10.37;;
19507;SDS011;40157;42.566;27.526;2022-12-29T14:37:41;44.63;;;17.77;;
19507;SDS011;40157;42.566;27.526;2022-12-29T14:39:43;51.00;;;20.73;;
19507;SDS011;40157;42.566;27.526;2022-12-29T14:41:45;22.70;;;10.80;;
19507;SDS011;40157;42.566;27.526;2022-12-29T14:43:56;17.40;;;8.50;;
19507;SDS011;40157;42.566;27.526;2022-12-29T14:46:02;24.23;;;8.97;;
19507;SDS011;40157;42.566;27.526;2022-12-29T14:48:03;30.53;;;10.90;;
19507;SDS011;40157;42.566;27.526;2022-12-29T14:50:43;82.40;;;28.10;;
19507;SDS011;40157;42.566;27.526;2022-12-29T14:52:57;32.20;;;12.67;;
19507;SDS011;40157;42.566;27.526;2022-12-29T14:54:59;15.47;;;7.07;;
19507;SDS011;40157;42.566;27.526;2022-12-29T14:57:48;14.93;;;8.53;;
19507;SDS011;40157;42.566;27.526;2022-12-29T14:59:55;16.57;;;9.30;;
19507;SDS011;40157;42.566;27.526;2022-12-29T15:02:05;17.07;;;8.77;;
19507;SDS011;40157;42.566;27.526;2022-12-29T15:04:23;20.43;;;10.03;;
19507;SDS011;40157;42.566;27.526;2022-12-29T15:06:29;17.93;;;9.80;;
19507;SDS011;40157;42.566;27.526;2022-12-29T15:08:31;31.70;;;13.87;;
19507;SDS011;40157;42.566;27.526;2022-12-29T15:10:42;17.73;;;9.80;;
19507;SDS011;40157;42.566;27.526;2022-12-29T15:12:49;12.10;;;7.27;;
19507;SDS011;40157;42.566;27.526;2022-12-29T15:14:56;12.10;;;6.40;;
19507;SDS011;40157;42.566;27.526;2022-12-29T15:16:58;13.83;;;6.70;;
19507;SDS011;40157;42.566;27.526;2022-12-29T15:18:59;14.73;;;6.37;;
19507;SDS011;40157;42.566;27.526;2022-12-29T15:21:00;14.30;;;7.30;;
19507;SDS011;40157;42.566;27.526;2022-12-29T15:23:09;16.03;;;7.37;;
19507;SDS011;40157;42.566;27.526;2022-12-29T15:25:12;16.40;;;7.47;;
19507;SDS011;40157;42.566;27.526;2022-12-29T15:27:17;25.10;;;11.43;;
19507;SDS011;40157;42.566;27.526;2022-12-29T15:29:40;22.70;;;8.67;;
19507;SDS011;40157;42.566;27.526;2022-12-29T15:31:46;12.93;;;5.90;;
19507;SDS011;40157;42.566;27.526;2022-12-29T15:33:49;14.10;;;7.50;;
19507;SDS011;40157;42.566;27.526;2022-12-29T15:35:52;18.73;;;8.63;;
19507;SDS011;40157;42.566;27.526;2022-12-29T15:37:55;19.63;;;8.67;;
19507;SDS011;40157;42.566;27.526;2022-12-29T15:39:56;15.80;;;8.20;;
19507;SDS011;40157;42.566;27.526;2022-12-29T15:41:58;19.70;;;6.13;;
19507;SDS011;40157;42.566;27.526;2022-12-29T15:44:17;12.13;;;5.70;;
19507;SDS011;40157;42.566;27.526;2022-12-29T15:46:29;18.40;;;6.50;;
19507;SDS011;40157;42.566;27.526;2022-12-29T15:48:31;15.47;;;7.27;;
19507;SDS011;40157;42.566;27.526;2022-12-29T15:50:33;18.50;;;7.53;;
19507;SDS011;40157;42.566;27.526;2022-12-29T15:52:35;22.70;;;9.47;;
19507;SDS011;40157;42.566;27.526;2022-12-29T15:54:39;26.30;;;13.90;;
19507;SDS011;40157;42.566;27.526;2022-12-29T15:56:42;18.67;;;7.60;;
19507;SDS011;40157;42.566;27.526;2022-12-29T15:58:47;22.00;;;9.00;;
19507;SDS011;40157;42.566;27.526;2022-12-29T16:00:51;18.90;;;8.23;;
19507;SDS011;40157;42.566;27.526;2022-12-29T16:02:58;18.17;;;8.53;;
19507;SDS011;40157;42.566;27.526;2022-12-29T16:05:01;21.30;;;9.53;;
19507;SDS011;40157;42.566;27.526;2022-12-29T16:07:02;29.77;;;13.00;;
19507;SDS011;40157;42.566;27.526;2022-12-29T16:09:15;18.47;;;8.40;;
19507;SDS011;40157;42.566;27.526;2022-12-29T16:11:22;20.43;;;10.43;;
19507;SDS011;40157;42.566;27.526;2022-12-29T16:13:28;18.97;;;8.27;;
19507;SDS011;40157;42.566;27.526;2022-12-29T16:15:31;18.43;;;8.97;;
19507;SDS011;40157;42.566;27.526;2022-12-29T16:17:35;17.73;;;9.27;;
19507;SDS011;40157;42.566;27.526;2022-12-29T16:19:55;20.40;;;11.10;;
19507;SDS011;40157;42.566;27.526;2022-12-29T16:21:58;32.50;;;13.70;;
19507;SDS011;40157;42.566;27.526;2022-12-29T16:24:02;36.50;;;16.60;;
19507;SDS011;40157;42.566;27.526;2022-12-29T16:26:10;31.57;;;14.20;;
19507;SDS011;40157;42.566;27.526;2022-12-29T16:28:18;36.13;;;13.80;;
19507;SDS011;40157;42.566;27.526;2022-12-29T16:30:23;35.63;;;13.47;;
19507;SDS011;40157;42.566;27.526;2022-12-29T16:32:29;22.73;;;10.47;;
19507;SDS011;40157;42.566;27.526;2022-12-29T16:34:32;55.70;;;22.63;;
19507;SDS011;40157;42.566;27.526;2022-12-29T16:36:53;55.77;;;23.20;;
19507;SDS011;40157;42.566;27.526;2022-12-29T16:41:30;43.47;;;22.87;;
19507;SDS011;40157;42.566;27.526;2022-12-29T16:43:32;32.60;;;17.00;;
19507;SDS011;40157;42.566;27.526;2022-12-29T16:47:47;20.07;;;10.80;;
19507;SDS011;40157;42.566;27.526;2022-12-29T16:50:13;24.37;;;13.03;;
19507;SDS011;40157;42.566;27.526;2022-12-29T16:52:33;37.03;;;18.00;;
19507;SDS011;40157;42.566;27.526;2022-12-29T16:54:35;34.83;;;18.43;;
19507;SDS011;40157;42.566;27.526;2022-12-29T16:56:36;37.83;;;20.90;;
19507;SDS011;40157;42.566;27.526;2022-12-29T16:58:48;40.50;;;23.43;;
19507;SDS011;40157;42.566;27.526;2022-12-29T17:00:54;45.73;;;23.83;;
19507;SDS011;40157;42.566;27.526;2022-12-29T17:02:56;38.33;;;18.03;;
19507;SDS011;40157;42.566;27.526;2022-12-29T17:04:58;22.63;;;10.90;;
19507;SDS011;40157;42.566;27.526;2022-12-29T17:06:59;18.07;;;8.77;;
19507;SDS011;40157;42.566;27.526;2022-12-29T17:08:59;30.50;;;11.80;;
19507;SDS011;40157;42.566;27.526;2022-12-29T17:11:01;29.30;;;14.03;;
19507;SDS011;40157;42.566;27.526;2022-12-29T17:13:19;27.67;;;13.07;;
19507;SDS011;40157;42.566;27.526;2022-12-29T17:17:32;25.03;;;11.00;;
19507;SDS011;40157;42.566;27.526;2022-12-29T17:19:35;36.17;;;14.87;;
19507;SDS011;40157;42.566;27.526;2022-12-29T17:21:37;33.43;;;13.87;;
19507;SDS011;40157;42.566;27.526;2022-12-29T17:23:39;24.37;;;11.00;;
19507;SDS011;40157;42.566;27.526;2022-12-29T17:25:40;24.53;;;10.30;;
19507;SDS011;40157;42.566;27.526;2022-12-29T17:30:05;12.73;;;6.70;;
19507;SDS011;40157;42.566;27.526;2022-12-29T17:32:12;14.60;;;6.80;;
19507;SDS011;40157;42.566;27.526;2022-12-29T17:34:14;17.57;;;6.67;;
19507;SDS011;40157;42.566;27.526;2022-12-29T17:36:15;35.37;;;9.30;;
19507;SDS011;40157;42.566;27.526;2022-12-29T17:40:21;14.17;;;4.63;;
19507;SDS011;40157;42.566;27.526;2022-12-29T17:42:26;12.67;;;4.87;;
19507;SDS011;40157;42.566;27.526;2022-12-29T17:44:26;15.57;;;4.77;;
19507;SDS011;40157;42.566;27.526;2022-12-29T17:46:27;11.03;;;5.07;;
19507;SDS011;40157;42.566;27.526;2022-12-29T17:48:28;15.27;;;6.17;;
19507;SDS011;40157;42.566;27.526;2022-12-29T17:50:29;14.60;;;5.70;;
19507;SDS011;40157;42.566;27.526;2022-12-29T17:52:30;16.33;;;7.63;;
19507;SDS011;40157;42.566;27.526;2022-12-29T17:54:32;16.70;;;7.00;;
19507;SDS011;40157;42.566;27.526;2022-12-29T17:56:33;18.97;;;8.23;;
19507;SDS011;40157;42.566;27.526;2022-12-29T17:58:33;20.90;;;7.53;;
19507;SDS011;40157;42.566;27.526;2022-12-29T18:00:34;20.13;;;8.27;;
19507;SDS011;40157;42.566;27.526;2022-12-29T18:02:34;18.23;;;8.63;;
19507;SDS011;40157;42.566;27.526;2022-12-29T18:04:35;24.83;;;8.50;;
19507;SDS011;40157;42.566;27.526;2022-12-29T18:06:35;13.50;;;7.03;;
19507;SDS011;40157;42.566;27.526;2022-12-29T18:08:36;16.30;;;7.13;;
19507;SDS011;40157;42.566;27.526;2022-12-29T18:10:38;16.07;;;7.13;;
19507;SDS011;40157;42.566;27.526;2022-12-29T18:12:40;17.67;;;7.13;;
19507;SDS011;40157;42.566;27.526;2022-12-29T18:14:43;18.20;;;7.17;;
19507;SDS011;40157;42.566;27.526;2022-12-29T18:16:43;15.03;;;6.43;;
19507;SDS011;40157;42.566;27.526;2022-12-29T18:18:44;15.43;;;5.13;;
19507;SDS011;40157;42.566;27.526;2022-12-29T18:20:45;11.03;;;5.27;;
19507;SDS011;40157;42.566;27.526;2022-12-29T18:22:46;15.00;;;5.33;;
19507;SDS011;40157;42.566;27.526;2022-12-29T18:24:47;13.77;;;5.47;;
19507;SDS011;40157;42.566;27.526;2022-12-29T18:26:47;13.00;;;6.47;;
19507;SDS011;40157;42.566;27.526;2022-12-29T18:28:48;20.40;;;8.10;;
19507;SDS011;40157;42.566;27.526;2022-12-29T18:30:50;15.63;;;8.40;;
19507;SDS011;40157;42.566;27.526;2022-12-29T18:32:51;21.60;;;9.80;;
19507;SDS011;40157;42.566;27.526;2022-12-29T18:34:52;23.40;;;12.33;;
19507;SDS011;40157;42.566;27.526;2022-12-29T18:36:52;32.47;;;14.07;;
19507;SDS011;40157;42.566;27.526;2022-12-29T18:39:02;39.37;;;17.80;;
19507;SDS011;40157;42.566;27.526;2022-12-29T18:41:03;44.60;;;20.93;;
19507;SDS011;40157;42.566;27.526;2022-12-29T18:43:09;34.33;;;17.30;;
19507;SDS011;40157;42.566;27.526;2022-12-29T18:45:16;26.47;;;14.80;;
19507;SDS011;40157;42.566;27.526;2022-12-29T18:47:19;24.37;;;12.27;;
19507;SDS011;40157;42.566;27.526;2022-12-29T18:49:19;25.33;;;12.40;;
19507;SDS011;40157;42.566;27.526;2022-12-29T18:51:21;25.80;;;12.70;;
19507;SDS011;40157;42.566;27.526;2022-12-29T18:53:23;28.83;;;12.93;;
19507;SDS011;40157;42.566;27.526;2022-12-29T18:55:26;24.13;;;13.37;;
19507;SDS011;40157;42.566;27.526;2022-12-29T18:57:32;21.77;;;11.17;;
19507;SDS011;40157;42.566;27.526;2022-12-29T18:59:42;20.20;;;10.10;;
19507;SDS011;40157;42.566;27.526;2022-12-29T19:01:43;19.40;;;8.97;;
19507;SDS011;40157;42.566;27.526;2022-12-29T19:03:46;16.30;;;8.27;;
19507;SDS011;40157;42.566;27.526;2022-12-29T19:05:47;20.43;;;10.17;;
19507;SDS011;40157;42.566;27.526;2022-12-29T19:07:51;15.50;;;9.63;;
19507;SDS011;40157;42.566;27.526;2022-12-29T19:09:52;19.17;;;9.07;;
19507;SDS011;40157;42.566;27.526;2022-12-29T19:11:52;24.00;;;11.70;;
19507;SDS011;40157;42.566;27.526;2022-12-29T19:13:56;22.17;;;11.63;;
19507;SDS011;40157;42.566;27.526;2022-12-29T19:15:56;25.87;;;11.40;;
19507;SDS011;40157;42.566;27.526;2022-12-29T19:17:59;22.67;;;9.97;;
19507;SDS011;40157;42.566;27.526;2022-12-29T19:20:02;19.97;;;9.77;;
19507;SDS011;40157;42.566;27.526;2022-12-29T19:22:03;26.30;;;10.20;;
19507;SDS011;40157;42.566;27.526;2022-12-29T19:24:04;23.53;;;10.83;;
19507;SDS011;40157;42.566;27.526;2022-12-29T19:26:04;24.40;;;10.20;;
19507;SDS011;40157;42.566;27.526;2022-12-29T19:28:05;21.57;;;10.20;;
19507;SDS011;40157;42.566;27.526;2022-12-29T19:30:07;25.60;;;10.90;;
19507;SDS011;40157;42.566;27.526;2022-12-29T19:32:19;18.30;;;9.87;;
19507;SDS011;40157;42.566;27.526;2022-12-29T19:34:29;21.27;;;9.40;;
19507;SDS011;40157;42.566;27.526;2022-12-29T19:36:51;19.53;;;9.80;;
19507;SDS011;40157;42.566;27.526;2022-12-29T19:39:03;18.27;;;10.37;;
19507;SDS011;40157;42.566;27.526;2022-12-29T19:41:05;24.40;;;13.73;;
19507;SDS011;40157;42.566;27.526;2022-12-29T19:43:34;30.00;;;15.23;;
19507;SDS011;40157;42.566;27.526;2022-12-29T19:45:36;20.30;;;11.40;;
19507;SDS011;40157;42.566;27.526;2022-12-29T19:47:41;23.30;;;11.00;;
19507;SDS011;40157;42.566;27.526;2022-12-29T19:49:41;28.20;;;12.87;;
19507;SDS011;40157;42.566;27.526;2022-12-29T19:51:43;43.70;;;20.00;;
19507;SDS011;40157;42.566;27.526;2022-12-29T19:53:44;37.07;;;16.63;;
19507;SDS011;40157;42.566;27.526;2022-12-29T19:55:45;35.03;;;16.60;;
19507;SDS011;40157;42.566;27.526;2022-12-29T19:57:46;36.70;;;15.40;;
19507;SDS011;40157;42.566;27.526;2022-12-29T19:59:47;24.17;;;13.03;;
19507;SDS011;40157;42.566;27.526;2022-12-29T20:04:48;25.80;;;14.17;;
19507;SDS011;40157;42.566;27.526;2022-12-29T20:06:49;27.97;;;13.63;;
19507;SDS011;40157;42.566;27.526;2022-12-29T20:08:53;29.93;;;13.07;;
19507;SDS011;40157;42.566;27.526;2022-12-29T20:11:03;24.77;;;13.13;;
19507;SDS011;40157;42.566;27.526;2022-12-29T20:13:05;35.00;;;13.90;;
19507;SDS011;40157;42.566;27.526;2022-12-29T20:15:06;25.47;;;13.17;;
19507;SDS011;40157;42.566;27.526;2022-12-29T20:17:09;31.57;;;15.13;;
19507;SDS011;40157;42.566;27.526;2022-12-29T20:19:12;26.47;;;13.80;;
19507;SDS011;40157;42.566;27.526;2022-12-29T20:21:13;29.00;;;12.57;;
19507;SDS011;40157;42.566;27.526;2022-12-29T20:23:16;25.80;;;13.63;;
19507;SDS011;40157;42.566;27.526;2022-12-29T20:25:16;32.40;;;14.33;;
19507;SDS011;40157;42.566;27.526;2022-12-29T20:27:17;23.77;;;12.40;;
19507;SDS011;40157;42.566;27.526;2022-12-29T20:29:18;28.83;;;13.83;;
19507;SDS011;40157;42.566;27.526;2022-12-29T20:33:20;33.63;;;15.37;;
19507;SDS011;40157;42.566;27.526;2022-12-29T20:35:20;34.47;;;16.20;;
19507;SDS011;40157;42.566;27.526;2022-12-29T20:37:21;26.93;;;16.03;;
19507;SDS011;40157;42.566;27.526;2022-12-29T20:39:21;38.77;;;16.93;;
19507;SDS011;40157;42.566;27.526;2022-12-29T20:41:22;38.10;;;20.10;;
19507;SDS011;40157;42.566;27.526;2022-12-29T20:43:23;48.93;;;22.30;;
19507;SDS011;40157;42.566;27.526;2022-12-29T20:45:23;46.93;;;22.87;;
19507;SDS011;40157;42.566;27.526;2022-12-29T20:47:24;54.13;;;24.80;;
19507;SDS011;40157;42.566;27.526;2022-12-29T20:49:24;53.23;;;26.73;;
19507;SDS011;40157;42.566;27.526;2022-12-29T20:51:25;63.00;;;31.37;;
19507;SDS011;40157;42.566;27.526;2022-12-29T20:53:28;73.83;;;35.07;;
19507;SDS011;40157;42.566;27.526;2022-12-29T20:55:29;76.47;;;38.77;;
19507;SDS011;40157;42.566;27.526;2022-12-29T20:57:30;75.97;;;36.97;;
19507;SDS011;40157;42.566;27.526;2022-12-29T20:59:30;65.93;;;32.13;;
19507;SDS011;40157;42.566;27.526;2022-12-29T21:01:31;48.43;;;24.83;;
19507;SDS011;40157;42.566;27.526;2022-12-29T21:03:32;48.53;;;23.13;;
19507;SDS011;40157;42.566;27.526;2022-12-29T21:05:34;43.40;;;22.07;;
19507;SDS011;40157;42.566;27.526;2022-12-29T21:07:36;49.47;;;23.70;;
19507;SDS011;40157;42.566;27.526;2022-12-29T21:09:37;49.63;;;23.73;;
19507;SDS011;40157;42.566;27.526;2022-12-29T21:11:37;53.87;;;24.30;;
19507;SDS011;40157;42.566;27.526;2022-12-29T21:13:38;50.93;;;22.77;;
19507;SDS011;40157;42.566;27.526;2022-12-29T21:15:38;42.87;;;21.17;;
19507;SDS011;40157;42.566;27.526;2022-12-29T21:17:38;46.57;;;21.40;;
19507;SDS011;40157;42.566;27.526;2022-12-29T21:19:39;43.70;;;21.93;;
19507;SDS011;40157;42.566;27.526;2022-12-29T21:21:39;42.63;;;21.00;;
19507;SDS011;40157;42.566;27.526;2022-12-29T21:23:40;40.20;;;21.30;;
19507;SDS011;40157;42.566;27.526;2022-12-29T21:25:42;37.40;;;19.37;;
19507;SDS011;40157;42.566;27.526;2022-12-29T21:27:42;36.63;;;17.10;;
19507;SDS011;40157;42.566;27.526;2022-12-29T21:29:43;33.97;;;17.03;;
19507;SDS011;40157;42.566;27.526;2022-12-29T21:31:47;31.90;;;15.83;;
19507;SDS011;40157;42.566;27.526;2022-12-29T21:33:47;30.43;;;14.93;;
19507;SDS011;40157;42.566;27.526;2022-12-29T21:35:48;31.93;;;14.40;;
19507;SDS011;40157;42.566;27.526;2022-12-29T21:37:48;31.93;;;16.20;;
19507;SDS011;40157;42.566;27.526;2022-12-29T21:39:49;28.70;;;15.70;;
19507;SDS011;40157;42.566;27.526;2022-12-29T21:41:49;32.10;;;16.07;;
19507;SDS011;40157;42.566;27.526;2022-12-29T21:43:51;33.83;;;17.30;;
19507;SDS011;40157;42.566;27.526;2022-12-29T21:46:09;41.83;;;18.43;;
19507;SDS011;40157;42.566;27.526;2022-12-29T21:48:10;38.63;;;19.47;;
19507;SDS011;40157;42.566;27.526;2022-12-29T21:50:22;40.73;;;21.23;;
19507;SDS011;40157;42.566;27.526;2022-12-29T21:52:23;41.93;;;20.20;;
19507;SDS011;40157;42.566;27.526;2022-12-29T21:54:24;42.70;;;19.80;;
19507;SDS011;40157;42.566;27.526;2022-12-29T21:56:45;36.73;;;20.43;;
19507;SDS011;40157;42.566;27.526;2022-12-29T21:58:47;52.40;;;27.03;;
19507;SDS011;40157;42.566;27.526;2022-12-29T22:01:09;70.07;;;32.97;;
19507;SDS011;40157;42.566;27.526;2022-12-29T22:03:29;70.20;;;34.90;;
19507;SDS011;40157;42.566;27.526;2022-12-29T22:05:48;63.10;;;32.17;;
19507;SDS011;40157;42.566;27.526;2022-12-29T22:08:07;45.13;;;24.27;;
19507;SDS011;40157;42.566;27.526;2022-12-29T22:10:26;40.13;;;21.77;;
19507;SDS011;40157;42.566;27.526;2022-12-29T22:12:45;47.37;;;24.30;;
19507;SDS011;40157;42.566;27.526;2022-12-29T22:15:00;40.33;;;20.17;;
19507;SDS011;40157;42.566;27.526;2022-12-29T22:17:01;38.97;;;21.27;;
19507;SDS011;40157;42.566;27.526;2022-12-29T22:19:01;39.30;;;18.70;;
19507;SDS011;40157;42.566;27.526;2022-12-29T22:21:05;42.03;;;19.07;;
19507;SDS011;40157;42.566;27.526;2022-12-29T22:23:07;32.47;;;17.63;;
19507;SDS011;40157;42.566;27.526;2022-12-29T22:25:08;34.67;;;17.50;;
19507;SDS011;40157;42.566;27.526;2022-12-29T22:27:09;34.30;;;16.20;;
19507;SDS011;40157;42.566;27.526;2022-12-29T22:29:09;37.83;;;16.63;;
19507;SDS011;40157;42.566;27.526;2022-12-29T22:33:20;31.63;;;16.47;;
19507;SDS011;40157;42.566;27.526;2022-12-29T22:35:21;35.60;;;17.53;;
19507;SDS011;40157;42.566;27.526;2022-12-29T22:37:21;32.17;;;16.07;;
19507;SDS011;40157;42.566;27.526;2022-12-29T22:39:22;33.57;;;16.80;;
19507;SDS011;40157;42.566;27.526;2022-12-29T22:41:24;35.47;;;17.00;;
19507;SDS011;40157;42.566;27.526;2022-12-29T22:43:24;33.10;;;17.10;;
19507;SDS011;40157;42.566;27.526;2022-12-29T22:45:28;35.13;;;16.83;;
19507;SDS011;40157;42.566;27.526;2022-12-29T22:47:29;33.63;;;17.03;;
19507;SDS011;40157;42.566;27.526;2022-12-29T22:49:29;35.53;;;16.93;;
19507;SDS011;40157;42.566;27.526;2022-12-29T22:51:30;37.30;;;17.03;;
19507;SDS011;40157;42.566;27.526;2022-12-29T22:53:30;33.50;;;17.40;;
19507;SDS011;40157;42.566;27.526;2022-12-29T22:55:30;32.73;;;16.33;;
19507;SDS011;40157;42.566;27.526;2022-12-29T22:57:31;37.03;;;17.83;;
19507;SDS011;40157;42.566;27.526;2022-12-29T22:59:32;43.50;;;19.83;;
19507;SDS011;40157;42.566;27.526;2022-12-29T23:01:33;48.17;;;23.20;;
19507;SDS011;40157;42.566;27.526;2022-12-29T23:03:34;46.13;;;22.30;;
19507;SDS011;40157;42.566;27.526;2022-12-29T23:05:34;50.33;;;25.83;;
19507;SDS011;40157;42.566;27.526;2022-12-29T23:07:35;51.87;;;29.33;;
19507;SDS011;40157;42.566;27.526;2022-12-29T23:09:35;61.23;;;30.97;;
19507;SDS011;40157;42.566;27.526;2022-12-29T23:11:36;63.00;;;33.47;;
19507;SDS011;40157;42.566;27.526;2022-12-29T23:13:36;69.00;;;31.70;;
19507;SDS011;40157;42.566;27.526;2022-12-29T23:15:37;57.07;;;30.23;;
19507;SDS011;40157;42.566;27.526;2022-12-29T23:17:38;65.13;;;33.80;;
19507;SDS011;40157;42.566;27.526;2022-12-29T23:19:39;61.67;;;33.03;;
19507;SDS011;40157;42.566;27.526;2022-12-29T23:21:39;68.23;;;35.23;;
19507;SDS011;40157;42.566;27.526;2022-12-29T23:23:40;75.03;;;39.13;;
19507;SDS011;40157;42.566;27.526;2022-12-29T23:25:52;67.40;;;36.37;;
19507;SDS011;40157;42.566;27.526;2022-12-29T23:27:53;61.40;;;30.67;;
19507;SDS011;40157;42.566;27.526;2022-12-29T23:29:53;52.30;;;26.13;;
19507;SDS011;40157;42.566;27.526;2022-12-29T23:31:54;58.10;;;26.17;;
19507;SDS011;40157;42.566;27.526;2022-12-29T23:33:54;44.00;;;22.83;;
19507;SDS011;40157;42.566;27.526;2022-12-29T23:35:55;44.63;;;22.53;;
19507;SDS011;40157;42.566;27.526;2022-12-29T23:37:55;39.37;;;20.43;;
19507;SDS011;40157;42.566;27.526;2022-12-29T23:39:56;40.43;;;21.90;;
19507;SDS011;40157;42.566;27.526;2022-12-29T23:41:56;44.77;;;19.93;;
19507;SDS011;40157;42.566;27.526;2022-12-29T23:43:57;37.87;;;19.97;;
19507;SDS011;40157;42.566;27.526;2022-12-29T23:45:57;43.20;;;20.17;;
19507;SDS011;40157;42.566;27.526;2022-12-29T23:47:58;43.97;;;19.87;;
19507;SDS011;40157;42.566;27.526;2022-12-29T23:49:58;40.20;;;19.80;;
19507;SDS011;40157;42.566;27.526;2022-12-29T23:51:59;37.10;;;18.17;;
19507;SDS011;40157;42.566;27.526;2022-12-29T23:53:59;47.13;;;21.40;;
19507;SDS011;40157;42.566;27.526;2022-12-29T23:56:00;50.87;;;21.17;;
19507;SDS011;40157;42.566;27.526;2022-12-29T23:58:00;45.00;;;21.13;;
